Terminal Aerodrome Forecast
Issued by NWS

Home | Current Version | Previous Version | Text Only | Print | Product List | Glossary On
Versions: 1 2 3 4 5 6 7 8 9 10 11 12
000
FTUS42 TJSJ 291139
TAFKPK
TAF
TKPK 291139Z 2912/3012 10010KT P6SM VCTS SCT015CB BKN035 OVC150
     FM291400 08012KT P6SM VCTS SCT018CB BKN040 OVC100
     FM291800 09013G21KT P6SM VCTS SCT018CB BKN030 OVC100
      AMD NOT SKED 3002/3011=

USA.gov is the U.S. government's official web portal to all federal, state and local government web resources and services.